createdAt,value
2023-02-22T00:00:43.250Z,0.70
2023-02-22T00:01:41.683Z,0.70
2023-02-22T00:02:41.972Z,0.50
2023-02-22T00:03:42.278Z,0.40
2023-02-22T00:04:42.572Z,0.50
2023-02-22T00:05:42.893Z,0.40
2023-02-22T00:06:45.049Z,0.50
2023-02-22T00:07:43.425Z,0.40
2023-02-22T00:08:45.603Z,0.50
2023-02-22T00:09:43.974Z,0.50
2023-02-22T00:10:44.259Z,0.50
2023-02-22T00:11:44.540Z,0.50
2023-02-22T00:12:44.864Z,0.50
2023-02-22T00:13:47.028Z,0.60
2023-02-22T00:14:46.309Z,0.50
2023-02-22T00:15:45.663Z,0.60
2023-02-22T00:16:47.851Z,0.50
2023-02-22T00:17:46.223Z,0.50
2023-02-22T00:18:48.416Z,0.50
2023-02-22T00:19:47.618Z,0.60
2023-02-22T00:20:47.104Z,0.50
2023-02-22T00:21:47.410Z,0.50
2023-02-22T00:22:49.572Z,0.50
2023-02-22T00:23:47.941Z,0.50
2023-02-22T00:24:50.145Z,0.30
2023-02-22T00:25:48.500Z,0.40
2023-02-22T00:26:48.814Z,0.50
2023-02-22T00:27:49.114Z,0.40
2023-02-22T00:28:51.297Z,0.60
2023-02-22T00:29:49.671Z,0.60
2023-02-22T00:30:49.972Z,0.50
2023-02-22T00:31:50.371Z,0.50
2023-02-22T00:32:50.569Z,0.50
2023-02-22T00:33:50.865Z,0.50
2023-02-22T00:34:53.078Z,0.40
2023-02-22T00:35:51.426Z,0.50
2023-02-22T00:36:51.736Z,0.50
2023-02-22T00:37:53.900Z,0.50
2023-02-22T00:38:54.078Z,0.40
2023-02-22T00:39:52.576Z,0.40
2023-02-22T00:40:54.761Z,0.40
2023-02-22T00:41:54.999Z,0.50
2023-02-22T00:42:55.133Z,0.50
2023-02-22T00:43:55.310Z,0.60
2023-02-22T00:44:55.964Z,0.40
2023-02-22T00:45:55.406Z,0.50
2023-02-22T00:46:55.520Z,0.50
2023-02-22T00:47:56.875Z,0.50
2023-02-22T00:48:57.062Z,0.40
2023-02-22T00:49:55.445Z,0.60
2023-02-22T00:50:55.729Z,0.60
2023-02-22T00:51:57.885Z,0.60
2023-02-22T00:52:58.082Z,0.60
2023-02-22T00:53:58.252Z,0.50
2023-02-22T00:54:56.899Z,0.50
2023-02-22T00:55:57.180Z,0.60
2023-02-22T00:56:58.419Z,0.80
2023-02-22T00:57:59.680Z,0.70
2023-02-22T00:58:59.834Z,0.60
2023-02-22T01:00:00.004Z,0.50
2023-02-22T01:01:00.240Z,0.60
2023-02-22T01:02:00.912Z,0.60
2023-02-22T01:03:01.031Z,0.70
2023-02-22T01:04:01.229Z,0.70
2023-02-22T01:05:01.404Z,0.80
2023-02-22T01:06:01.604Z,0.90
2023-02-22T01:07:00.349Z,0.60
2023-02-22T01:08:00.642Z,0.80
2023-02-22T01:09:02.823Z,0.60
2023-02-22T01:10:03.027Z,0.70
2023-02-22T01:11:03.212Z,0.50
2023-02-22T01:12:03.444Z,0.80
2023-02-22T01:13:03.626Z,0.70
2023-02-22T01:14:02.386Z,0.60
2023-02-22T01:15:03.590Z,0.90
2023-02-22T01:16:04.785Z,0.70
2023-02-22T01:17:04.970Z,0.90
2023-02-22T01:18:03.484Z,0.80
2023-02-22T01:19:03.784Z,0.70
2023-02-22T01:20:05.986Z,1.00
2023-02-22T01:21:04.371Z,1.00
2023-02-22T01:22:04.668Z,1.20
2023-02-22T01:23:04.979Z,1.00
2023-02-22T01:24:05.258Z,1.30
2023-02-22T01:25:05.562Z,0.90
2023-02-22T01:26:07.775Z,1.20
2023-02-22T01:27:08.962Z,1.20
2023-02-22T01:28:08.199Z,1.50
2023-02-22T01:29:08.846Z,1.20
2023-02-22T01:30:09.031Z,1.20
2023-02-22T01:31:09.197Z,1.30
2023-02-22T01:32:09.392Z,1.30
2023-02-22T01:33:09.499Z,1.50
2023-02-22T01:34:10.190Z,1.50
2023-02-22T01:35:10.380Z,1.40
2023-02-22T01:36:10.554Z,2.10
2023-02-22T01:37:10.747Z,1.40
2023-02-22T01:38:11.447Z,1.40
2023-02-22T01:39:11.629Z,1.60
2023-02-22T01:40:11.838Z,1.70
2023-02-22T01:41:12.016Z,1.70
2023-02-22T01:42:12.679Z,1.80
2023-02-22T01:43:11.047Z,1.70
2023-02-22T01:44:13.239Z,1.70
2023-02-22T01:45:11.610Z,1.50
2023-02-22T01:46:13.861Z,2.00
2023-02-22T01:47:12.214Z,2.80
2023-02-22T01:48:12.518Z,2.80
2023-02-22T01:49:14.702Z,3.40
2023-02-22T01:50:13.076Z,1.90
2023-02-22T01:51:15.477Z,2.90
2023-02-22T01:52:13.651Z,2.30
2023-02-22T01:53:13.950Z,2.30
2023-02-22T01:54:16.160Z,2.70
2023-02-22T01:55:14.509Z,2.80
2023-02-22T01:56:16.693Z,3.00
2023-02-22T01:57:15.068Z,2.20
2023-02-22T01:58:15.370Z,2.60
2023-02-22T01:59:17.550Z,2.00
2023-02-22T02:00:15.929Z,2.40
2023-02-22T02:01:18.497Z,2.40
2023-02-22T02:02:16.515Z,2.50
2023-02-22T02:03:16.801Z,2.60
2023-02-22T02:04:19.100Z,3.40
2023-02-22T02:05:18.257Z,3.30
2023-02-22T02:06:21.064Z,2.10
2023-02-22T02:07:19.782Z,3.00
2023-02-22T02:08:18.157Z,2.40
2023-02-22T02:09:18.459Z,3.20
2023-02-22T02:10:18.758Z,2.60
2023-02-22T02:11:19.141Z,2.70
2023-02-22T02:12:21.238Z,3.10
2023-02-22T02:13:19.620Z,1.90
2023-02-22T02:14:19.907Z,2.50
2023-02-22T02:15:20.213Z,2.70
2023-02-22T02:16:21.449Z,2.50
2023-02-22T02:17:22.698Z,3.10
2023-02-22T02:18:21.069Z,3.00
2023-02-22T02:19:21.379Z,2.30
2023-02-22T02:20:21.668Z,3.00
2023-02-22T02:21:21.962Z,1.90
2023-02-22T02:22:24.152Z,2.80
2023-02-22T02:23:22.543Z,2.70
2023-02-22T02:24:24.740Z,3.20
2023-02-22T02:25:23.090Z,2.30
2023-02-22T02:26:23.400Z,2.70
2023-02-22T02:27:23.706Z,2.80
2023-02-22T02:28:24.006Z,3.00
2023-02-22T02:29:26.188Z,4.80
2023-02-22T02:30:24.620Z,5.50
2023-02-22T02:31:24.861Z,4.20
2023-02-22T02:32:27.061Z,4.80
2023-02-22T02:33:25.436Z,11.20
2023-02-22T02:34:25.764Z,5.30
2023-02-22T02:35:26.045Z,10.20
2023-02-22T02:36:26.360Z,18.50
2023-02-22T02:37:28.542Z,16.80
2023-02-22T02:38:26.969Z,20.80
2023-02-22T02:39:27.178Z,10.40
2023-02-22T02:40:27.565Z,10.00
2023-02-22T02:41:27.723Z,26.60
2023-02-22T02:42:29.914Z,31.40
2023-02-22T02:43:30.101Z,9.30
2023-02-22T02:44:30.293Z,9.60
2023-02-22T02:45:30.474Z,8.20
2023-02-22T02:46:31.177Z,17.20
2023-02-22T02:47:31.457Z,13.40
2023-02-22T02:48:31.535Z,11.60
2023-02-22T02:49:31.715Z,19.90
2023-02-22T02:50:31.327Z,23.40
2023-02-22T02:51:32.692Z,19.70
2023-02-22T02:52:32.897Z,15.50
2023-02-22T02:53:33.073Z,31.60
2023-02-22T02:54:31.735Z,19.70
2023-02-22T02:55:32.048Z,21.10
2023-02-22T02:56:32.373Z,13.80
2023-02-22T02:57:32.678Z,12.40
2023-02-22T02:58:34.883Z,30.20
2023-02-22T02:59:33.273Z,13.80
2023-02-22T03:00:33.581Z,32.50
2023-02-22T03:01:33.928Z,10.30
2023-02-22T03:02:36.113Z,33.10
2023-02-22T03:03:36.286Z,25.90
2023-02-22T03:04:36.462Z,19.30
2023-02-22T03:05:36.642Z,28.60
2023-02-22T03:06:37.336Z,35.00
2023-02-22T03:07:37.516Z,31.30
2023-02-22T03:08:37.688Z,36.20
2023-02-22T03:09:37.876Z,39.20
2023-02-22T03:10:38.668Z,28.70
2023-02-22T03:11:36.963Z,10.20
2023-02-22T03:12:39.140Z,24.30
2023-02-22T03:13:39.326Z,22.00
2023-02-22T03:14:39.508Z,17.70
2023-02-22T03:15:39.684Z,28.20
2023-02-22T03:16:40.432Z,8.30
2023-02-22T03:17:40.580Z,32.00
2023-02-22T03:18:40.768Z,9.90
2023-02-22T03:19:40.927Z,11.30
2023-02-22T03:20:41.629Z,7.90
2023-02-22T03:21:41.820Z,8.70
2023-02-22T03:22:42.031Z,12.60
2023-02-22T03:23:42.200Z,15.40
2023-02-22T03:24:42.385Z,17.20
2023-02-22T03:25:43.060Z,8.30
2023-02-22T03:26:43.255Z,14.80
2023-02-22T03:27:43.442Z,12.50
2023-02-22T03:28:43.612Z,10.90
2023-02-22T03:29:44.286Z,16.50
2023-02-22T03:30:44.567Z,11.40
2023-02-22T03:31:42.942Z,15.00
2023-02-22T03:32:45.144Z,12.20
2023-02-22T03:33:45.321Z,13.50
2023-02-22T03:34:43.851Z,9.70
2023-02-22T03:35:46.029Z,8.10
2023-02-22T03:36:46.216Z,11.50
2023-02-22T03:37:44.731Z,11.60
2023-02-22T03:38:46.914Z,6.90
2023-02-22T03:39:45.288Z,14.60
2023-02-22T03:40:47.473Z,8.10
2023-02-22T03:41:47.654Z,6.90
2023-02-22T03:42:46.162Z,10.70
2023-02-22T03:43:46.476Z,8.30
2023-02-22T03:44:46.784Z,4.50
2023-02-22T03:45:47.084Z,7.40
2023-02-22T03:46:49.266Z,6.30
2023-02-22T03:47:49.447Z,3.30
2023-02-22T03:48:47.955Z,12.60
2023-02-22T03:49:48.263Z,12.80
2023-02-22T03:50:48.567Z,15.40
2023-02-22T03:51:50.759Z,13.60
2023-02-22T03:52:49.143Z,16.60
2023-02-22T03:53:49.459Z,22.60
2023-02-22T03:54:49.844Z,19.60
2023-02-22T03:55:50.033Z,17.40
2023-02-22T03:56:52.211Z,21.90
2023-02-22T03:57:50.619Z,24.20
2023-02-22T03:58:51.869Z,22.30
2023-02-22T03:59:52.098Z,24.70
2023-02-22T04:00:51.494Z,25.30
2023-02-22T04:01:53.684Z,13.00
2023-02-22T04:02:53.900Z,20.60
2023-02-22T04:03:52.396Z,13.50
2023-02-22T04:04:52.764Z,25.90
2023-02-22T04:05:53.009Z,17.30
2023-02-22T04:06:53.229Z,22.20
2023-02-22T04:07:55.420Z,10.80
2023-02-22T04:08:55.601Z,13.10
2023-02-22T04:09:54.160Z,21.70
2023-02-22T04:10:54.384Z,15.30
2023-02-22T04:11:54.627Z,18.60
2023-02-22T04:12:54.952Z,28.50
2023-02-22T04:13:55.184Z,26.80
2023-02-22T04:14:57.383Z,21.20
2023-02-22T04:15:55.822Z,30.90
2023-02-22T04:16:56.102Z,25.50
2023-02-22T04:17:56.454Z,31.70
2023-02-22T04:18:56.690Z,33.70
2023-02-22T04:19:58.880Z,22.10
2023-02-22T04:20:57.152Z,26.50
2023-02-22T04:21:59.378Z,27.20
2023-02-22T04:22:57.790Z,32.10
2023-02-22T04:23:58.122Z,16.70
2023-02-22T04:24:58.435Z,15.20
2023-02-22T04:25:58.756Z,18.30
2023-02-22T04:27:00.938Z,21.40
2023-02-22T04:28:01.147Z,17.60
2023-02-22T04:29:01.325Z,19.20
2023-02-22T04:30:01.515Z,13.00
2023-02-22T04:31:00.360Z,14.70
2023-02-22T04:32:00.559Z,20.20
2023-02-22T04:33:00.849Z,12.40
2023-02-22T04:34:01.173Z,17.70
2023-02-22T04:35:03.367Z,13.60
2023-02-22T04:36:01.750Z,17.40
2023-02-22T04:37:02.075Z,15.30
2023-02-22T04:38:04.274Z,22.30
2023-02-22T04:39:02.645Z,10.90
2023-02-22T04:40:04.848Z,10.70
2023-02-22T04:41:04.990Z,12.70
2023-02-22T04:42:03.506Z,7.50
2023-02-22T04:43:04.610Z,8.20
2023-02-22T04:44:05.031Z,5.70
2023-02-22T04:45:06.303Z,11.50
2023-02-22T04:46:06.559Z,18.30
2023-02-22T04:47:06.623Z,13.10
2023-02-22T04:48:07.360Z,7.40
2023-02-22T04:49:07.485Z,10.10
2023-02-22T04:50:07.743Z,12.60
2023-02-22T04:51:07.910Z,12.20
2023-02-22T04:52:08.120Z,7.10
2023-02-22T04:53:08.809Z,10.30
2023-02-22T04:54:09.010Z,9.90
2023-02-22T04:55:09.191Z,5.30
2023-02-22T04:56:09.381Z,8.60
2023-02-22T04:57:09.567Z,16.30
2023-02-22T04:58:10.269Z,7.00
2023-02-22T04:59:10.451Z,9.10
2023-02-22T05:00:10.632Z,10.40
2023-02-22T05:01:10.824Z,5.50
2023-02-22T05:02:11.488Z,2.70
2023-02-22T05:03:11.648Z,4.60
2023-02-22T05:04:11.845Z,4.60
2023-02-22T05:05:12.014Z,3.70
2023-02-22T05:06:12.725Z,3.20
2023-02-22T05:07:12.907Z,3.40
2023-02-22T05:08:11.405Z,2.60
2023-02-22T05:09:11.719Z,2.90
2023-02-22T05:10:13.903Z,2.40
2023-02-22T05:11:14.184Z,1.90
2023-02-22T05:12:14.288Z,3.00
2023-02-22T05:13:14.490Z,3.40
2023-02-22T05:14:15.145Z,2.40
2023-02-22T05:15:15.323Z,2.90
2023-02-22T05:16:15.543Z,2.80
2023-02-22T05:17:15.680Z,3.80
2023-02-22T05:18:16.418Z,3.40
2023-02-22T05:19:16.562Z,3.50
2023-02-22T05:20:18.350Z,2.60
2023-02-22T05:21:15.448Z,2.30
2023-02-22T05:22:17.404Z,2.70
2023-02-22T05:23:17.592Z,1.90
2023-02-22T05:24:17.769Z,2.00
2023-02-22T05:25:17.959Z,2.60
2023-02-22T05:26:18.644Z,2.90
2023-02-22T05:27:17.012Z,1.40
2023-02-22T05:28:20.664Z,2.30
2023-02-22T05:29:17.568Z,1.90
2023-02-22T05:30:17.915Z,1.70
2023-02-22T05:31:20.333Z,2.20
2023-02-22T05:32:18.512Z,2.20
2023-02-22T05:33:18.683Z,1.90
2023-02-22T05:34:20.894Z,1.70
2023-02-22T05:35:19.288Z,1.80
2023-02-22T05:36:21.475Z,2.00
2023-02-22T05:37:19.852Z,1.80
2023-02-22T05:38:20.220Z,1.60
2023-02-22T05:39:20.397Z,1.90
2023-02-22T05:40:20.715Z,2.00
2023-02-22T05:41:22.908Z,2.20
2023-02-22T05:42:21.323Z,1.70
2023-02-22T05:43:21.594Z,2.20
2023-02-22T05:44:21.905Z,2.50
2023-02-22T05:45:22.190Z,2.40
2023-02-22T05:46:24.386Z,2.80
2023-02-22T05:47:22.747Z,1.30
2023-02-22T05:48:23.052Z,2.00
2023-02-22T05:49:23.345Z,2.90
2023-02-22T05:50:23.656Z,3.00
2023-02-22T05:51:25.833Z,3.10
2023-02-22T05:52:24.205Z,2.70
2023-02-22T05:53:24.497Z,2.70
2023-02-22T05:54:26.689Z,2.40
2023-02-22T05:55:25.862Z,3.00
2023-02-22T05:56:27.297Z,2.60
2023-02-22T05:57:26.432Z,2.70
2023-02-22T05:58:25.912Z,2.20
2023-02-22T05:59:27.019Z,2.40
2023-02-22T06:00:26.729Z,1.70
2023-02-22T06:01:26.739Z,2.50
2023-02-22T06:02:28.920Z,3.30
2023-02-22T06:03:27.305Z,2.80
2023-02-22T06:04:29.644Z,2.70
2023-02-22T06:05:27.929Z,2.40
2023-02-22T06:06:28.197Z,2.20
2023-02-22T06:07:28.488Z,2.50
2023-02-22T06:08:30.689Z,2.10
2023-02-22T06:09:30.857Z,2.80
2023-02-22T06:10:29.369Z,2.20
2023-02-22T06:11:29.700Z,2.50
2023-02-22T06:12:30.881Z,2.90
2023-02-22T06:13:30.274Z,2.30
2023-02-22T06:14:32.458Z,2.80
2023-02-22T06:15:30.890Z,3.50
2023-02-22T06:16:33.129Z,2.60
2023-02-22T06:17:31.514Z,2.80
2023-02-22T06:18:33.687Z,2.60
2023-02-22T06:19:33.874Z,3.00
2023-02-22T06:20:34.086Z,3.20
2023-02-22T06:21:34.266Z,3.40
2023-02-22T06:22:34.963Z,2.80
2023-02-22T06:23:33.346Z,3.90
2023-02-22T06:24:35.537Z,3.50
2023-02-22T06:25:33.938Z,4.20
2023-02-22T06:26:34.242Z,2.60
2023-02-22T06:27:34.559Z,3.30
2023-02-22T06:28:34.876Z,3.20
2023-02-22T06:29:37.054Z,2.00
2023-02-22T06:30:38.359Z,3.60
2023-02-22T06:31:37.450Z,3.20
2023-02-22T06:32:36.896Z,2.60
2023-02-22T06:33:37.312Z,2.70
2023-02-22T06:34:37.675Z,3.70
2023-02-22T06:35:38.902Z,2.60
2023-02-22T06:36:38.113Z,2.00
2023-02-22T06:37:38.391Z,2.30
2023-02-22T06:38:39.630Z,2.70
2023-02-22T06:39:41.297Z,2.10
2023-02-22T06:40:40.010Z,2.20
2023-02-22T06:41:38.676Z,2.20
2023-02-22T06:42:38.998Z,3.30
2023-02-22T06:43:39.333Z,2.80
2023-02-22T06:44:39.660Z,1.90
2023-02-22T06:45:43.312Z,2.70
2023-02-22T06:46:42.019Z,2.60
2023-02-22T06:47:42.187Z,2.20
2023-02-22T06:48:41.757Z,3.00
2023-02-22T06:49:43.011Z,2.30
2023-02-22T06:50:43.163Z,2.20
2023-02-22T06:51:44.812Z,1.50
2023-02-22T06:52:43.526Z,2.00
2023-02-22T06:53:44.205Z,2.10
2023-02-22T06:54:44.405Z,2.10
2023-02-22T06:55:42.914Z,2.00
2023-02-22T06:56:43.456Z,2.40
2023-02-22T06:57:44.464Z,1.90
2023-02-22T06:58:45.646Z,2.30
2023-02-22T06:59:45.838Z,1.90
2023-02-22T07:00:46.030Z,2.10
2023-02-22T07:01:46.725Z,2.00
2023-02-22T07:02:47.111Z,2.10
2023-02-22T07:03:47.116Z,2.30
2023-02-22T07:04:47.350Z,2.00
2023-02-22T07:05:47.493Z,1.70
2023-02-22T07:06:48.192Z,1.50
2023-02-22T07:07:49.315Z,2.10
2023-02-22T07:08:48.556Z,2.00
2023-02-22T07:09:48.747Z,1.90
2023-02-22T07:10:48.938Z,2.00
2023-02-22T07:11:49.616Z,2.00
2023-02-22T07:12:49.820Z,1.80
2023-02-22T07:13:50.004Z,1.80
2023-02-22T07:14:50.190Z,1.80
2023-02-22T07:15:50.871Z,1.50
2023-02-22T07:16:49.277Z,1.70
2023-02-22T07:17:51.476Z,1.70
2023-02-22T07:18:50.125Z,1.60
2023-02-22T07:19:52.060Z,1.70
2023-02-22T07:20:50.508Z,1.90
2023-02-22T07:21:52.645Z,2.10
2023-02-22T07:22:51.064Z,2.00
2023-02-22T07:23:53.255Z,1.60
2023-02-22T07:24:53.479Z,1.80
2023-02-22T07:25:51.897Z,1.80
2023-02-22T07:26:54.089Z,1.80
2023-02-22T07:27:52.528Z,1.50
2023-02-22T07:28:53.799Z,1.70
2023-02-22T07:29:56.493Z,1.80
2023-02-22T07:30:53.326Z,1.60
2023-02-22T07:31:53.561Z,1.70
2023-02-22T07:32:53.924Z,1.40
2023-02-22T07:33:54.109Z,1.50
2023-02-22T07:34:56.296Z,1.70
2023-02-22T07:35:57.942Z,1.50
2023-02-22T07:36:56.743Z,1.80
2023-02-22T07:37:56.870Z,1.80
2023-02-22T07:38:57.028Z,1.90
2023-02-22T07:39:57.711Z,1.50
2023-02-22T07:40:56.994Z,1.90
2023-02-22T07:41:58.345Z,1.60
2023-02-22T07:42:58.539Z,1.50
2023-02-22T07:43:57.202Z,1.60
2023-02-22T07:44:57.268Z,1.60
2023-02-22T07:45:57.675Z,1.40
2023-02-22T07:47:01.279Z,2.00
2023-02-22T07:47:58.189Z,1.90
2023-02-22T07:48:58.528Z,1.70
2023-02-22T07:49:58.874Z,1.80
2023-02-22T07:50:59.229Z,1.90
2023-02-22T07:52:01.605Z,2.00
2023-02-22T07:53:01.609Z,2.00
2023-02-22T07:54:00.151Z,1.90
2023-02-22T07:55:00.372Z,1.70
2023-02-22T07:56:00.609Z,1.30
2023-02-22T07:57:00.831Z,0.80
2023-02-22T07:58:01.078Z,1.80
2023-02-22T07:59:03.232Z,1.90
2023-02-22T08:00:01.641Z,1.40
2023-02-22T08:01:02.001Z,1.60
2023-02-22T08:02:02.344Z,1.20
2023-02-22T08:03:03.591Z,1.50
2023-02-22T08:04:04.770Z,1.40
2023-02-22T08:05:03.200Z,1.80
2023-02-22T08:06:05.391Z,1.00
2023-02-22T08:07:03.673Z,1.50
2023-02-22T08:08:05.885Z,1.30
2023-02-22T08:09:04.289Z,1.30
2023-02-22T08:10:04.635Z,1.10
2023-02-22T08:11:08.275Z,1.40
2023-02-22T08:12:05.211Z,1.40
2023-02-22T08:13:07.394Z,1.40
2023-02-22T08:14:06.629Z,1.30
2023-02-22T08:15:05.920Z,1.50
2023-02-22T08:16:08.147Z,1.30
2023-02-22T08:17:08.484Z,1.20
2023-02-22T08:18:06.828Z,1.50
2023-02-22T08:19:07.174Z,1.40
2023-02-22T08:20:07.518Z,0.90
2023-02-22T08:21:09.705Z,0.80
2023-02-22T08:22:09.888Z,1.00
2023-02-22T08:23:08.304Z,1.30
2023-02-22T08:24:10.506Z,1.40
2023-02-22T08:25:11.641Z,1.20
2023-02-22T08:26:12.335Z,1.20
2023-02-22T08:27:11.041Z,1.10
2023-02-22T08:28:11.737Z,1.30
2023-02-22T08:29:11.896Z,1.40
2023-02-22T08:30:11.262Z,1.20
2023-02-22T08:31:14.129Z,1.30
2023-02-22T08:32:12.955Z,0.90
2023-02-22T08:33:13.071Z,0.80
2023-02-22T08:34:11.612Z,1.40
2023-02-22T08:35:13.817Z,1.50
2023-02-22T08:36:12.247Z,1.50
2023-02-22T08:37:12.467Z,1.40
2023-02-22T08:38:12.811Z,1.60
2023-02-22T08:39:14.990Z,1.00
2023-02-22T08:40:14.806Z,1.60
2023-02-22T08:41:13.691Z,1.50
2023-02-22T08:42:13.908Z,1.40
2023-02-22T08:43:16.097Z,1.40
2023-02-22T08:44:14.633Z,1.70
2023-02-22T08:45:15.068Z,1.70
2023-02-22T08:46:16.788Z,1.50
2023-02-22T08:47:16.255Z,1.70
2023-02-22T08:48:17.660Z,1.70
2023-02-22T08:49:15.927Z,0.80
2023-02-22T08:50:16.275Z,1.60
2023-02-22T08:51:16.715Z,1.50
2023-02-22T08:52:18.685Z,1.90
2023-02-22T08:53:18.934Z,1.60
2023-02-22T08:54:19.067Z,1.80
2023-02-22T08:55:19.244Z,1.50
2023-02-22T08:56:18.028Z,1.30
2023-02-22T08:57:21.741Z,1.80
2023-02-22T08:58:20.399Z,1.70
2023-02-22T08:59:18.967Z,1.30
2023-02-22T09:00:19.187Z,1.50
2023-02-22T09:01:31.401Z,1.60
2023-02-22T09:02:22.739Z,1.70
2023-02-22T09:03:21.829Z,1.90
2023-02-22T09:04:22.306Z,1.60
2023-02-22T09:05:22.135Z,1.50
2023-02-22T09:06:22.845Z,1.40
2023-02-22T09:07:23.041Z,1.80
2023-02-22T09:08:23.233Z,1.80
2023-02-22T09:09:23.455Z,1.80
2023-02-22T09:10:25.577Z,1.90
2023-02-22T09:11:22.504Z,1.80
2023-02-22T09:12:24.685Z,1.10
2023-02-22T09:13:24.871Z,2.10
2023-02-22T09:14:23.395Z,2.30
2023-02-22T09:15:27.036Z,1.80
2023-02-22T09:16:25.812Z,2.00
2023-02-22T09:17:25.966Z,2.10
2023-02-22T09:18:30.522Z,2.20
2023-02-22T09:19:25.831Z,2.00
2023-02-22T09:20:27.050Z,1.50
2023-02-22T09:21:25.427Z,2.00
2023-02-22T09:22:25.764Z,1.70
2023-02-22T09:23:27.953Z,2.20
2023-02-22T09:24:26.355Z,1.90
2023-02-22T09:25:28.540Z,1.90
2023-02-22T09:26:26.966Z,1.40
2023-02-22T09:27:29.148Z,2.20
2023-02-22T09:28:29.382Z,2.00
2023-02-22T09:29:27.772Z,1.80
2023-02-22T09:30:28.038Z,1.90
2023-02-22T09:31:28.326Z,2.00
2023-02-22T09:32:28.621Z,1.80
2023-02-22T09:33:30.744Z,1.00
2023-02-22T09:34:29.108Z,1.60
2023-02-22T09:35:29.481Z,1.50
2023-02-22T09:36:31.617Z,1.40
2023-02-22T09:37:30.993Z,1.20
2023-02-22T09:38:32.237Z,1.40
2023-02-22T09:39:32.474Z,1.60
2023-02-22T09:40:32.627Z,0.70
2023-02-22T09:41:31.140Z,1.30
2023-02-22T09:42:31.485Z,0.90
2023-02-22T09:43:31.832Z,1.30
2023-02-22T09:44:34.024Z,1.10
2023-02-22T09:45:32.538Z,1.30
2023-02-22T09:46:33.625Z,1.00
2023-02-22T09:47:34.997Z,1.40
2023-02-22T09:48:33.389Z,0.80
2023-02-22T09:49:33.614Z,1.30
2023-02-22T09:50:35.796Z,1.10
2023-02-22T09:51:34.199Z,1.20
2023-02-22T09:52:34.547Z,0.90
2023-02-22T09:53:34.881Z,1.20
2023-02-22T09:54:35.218Z,1.20
2023-02-22T09:55:37.409Z,0.90
2023-02-22T09:56:35.811Z,1.10
2023-02-22T09:57:36.173Z,1.00
2023-02-22T09:58:37.356Z,1.00
2023-02-22T09:59:37.000Z,0.50
2023-02-22T10:00:36.904Z,0.90
2023-02-22T10:01:37.232Z,1.00
2023-02-22T10:02:37.578Z,0.60
2023-02-22T10:03:39.782Z,1.00
2023-02-22T10:04:39.945Z,1.00
2023-02-22T10:05:38.579Z,0.90
2023-02-22T10:06:38.816Z,1.00
2023-02-22T10:07:39.026Z,0.90
2023-02-22T10:08:41.196Z,0.70
2023-02-22T10:09:39.617Z,0.80
2023-02-22T10:10:40.027Z,0.90
2023-02-22T10:11:40.256Z,0.80
2023-02-22T10:12:42.474Z,0.70
2023-02-22T10:13:42.634Z,0.80
2023-02-22T10:14:43.994Z,0.60
2023-02-22T10:15:42.970Z,0.80
2023-02-22T10:16:43.290Z,0.70
2023-02-22T10:17:44.002Z,0.60
2023-02-22T10:18:44.041Z,0.80
2023-02-22T10:19:44.233Z,0.70
2023-02-22T10:20:44.749Z,0.50
2023-02-22T10:21:44.617Z,0.70
2023-02-22T10:22:45.299Z,0.70
2023-02-22T10:23:45.515Z,0.80
2023-02-22T10:24:44.829Z,0.80
2023-02-22T10:25:46.146Z,0.60
2023-02-22T10:26:44.496Z,0.60
2023-02-22T10:27:46.679Z,0.80
2023-02-22T10:28:45.985Z,0.60
2023-02-22T10:29:47.182Z,0.60
2023-02-22T10:30:46.600Z,0.60
2023-02-22T10:31:47.927Z,0.50
2023-02-22T10:32:47.980Z,0.30
2023-02-22T10:33:46.526Z,0.60
2023-02-22T10:34:48.741Z,0.60
2023-02-22T10:35:47.878Z,0.70
2023-02-22T10:36:47.296Z,0.70
2023-02-22T10:37:47.540Z,0.40
2023-02-22T10:38:49.720Z,0.60
2023-02-22T10:39:49.962Z,0.50
2023-02-22T10:40:48.405Z,0.60
2023-02-22T10:41:48.635Z,0.70
2023-02-22T10:42:50.825Z,0.70
2023-02-22T10:43:50.986Z,0.50
2023-02-22T10:44:51.142Z,0.60
2023-02-22T10:45:51.332Z,0.60
2023-02-22T10:46:52.019Z,0.50
2023-02-22T10:47:50.308Z,0.60
2023-02-22T10:48:50.543Z,0.60
2023-02-22T10:49:50.799Z,0.60
2023-02-22T10:50:54.418Z,0.50
2023-02-22T10:51:51.354Z,0.40
2023-02-22T10:52:51.706Z,0.50
2023-02-22T10:53:51.962Z,0.70
2023-02-22T10:54:52.186Z,0.60
2023-02-22T10:55:54.389Z,0.50
2023-02-22T10:56:52.662Z,0.30
2023-02-22T10:57:52.893Z,0.60
2023-02-22T10:58:55.090Z,0.60
2023-02-22T10:59:53.408Z,0.40
2023-02-22T11:00:55.593Z,0.60
2023-02-22T11:01:55.741Z,0.30
2023-02-22T11:02:55.988Z,0.60
2023-02-22T11:03:56.089Z,0.50
2023-02-22T11:04:56.365Z,0.50
2023-02-22T11:05:56.953Z,0.60
2023-02-22T11:06:57.146Z,0.60
2023-02-22T11:07:57.325Z,0.40
2023-02-22T11:08:57.508Z,0.50
2023-02-22T11:09:58.216Z,0.50
2023-02-22T11:10:58.385Z,0.50
2023-02-22T11:11:59.775Z,0.60
2023-02-22T11:12:57.058Z,0.70
2023-02-22T11:13:59.245Z,0.50
2023-02-22T11:14:57.549Z,0.40
2023-02-22T11:15:59.732Z,0.60
2023-02-22T11:16:58.157Z,0.60
2023-02-22T11:18:00.188Z,0.40
2023-02-22T11:18:58.611Z,0.40
2023-02-22T11:20:00.785Z,0.40
2023-02-22T11:21:00.953Z,0.50
2023-02-22T11:21:59.371Z,0.60
2023-02-22T11:23:01.569Z,0.50
2023-02-22T11:23:59.871Z,0.60
2023-02-22T11:25:02.070Z,0.50
2023-02-22T11:26:02.254Z,0.60
2023-02-22T11:27:00.682Z,0.60
2023-02-22T11:28:00.917Z,0.60
2023-02-22T11:29:04.549Z,0.60
2023-02-22T11:30:01.369Z,0.70
2023-02-22T11:31:04.622Z,0.60
2023-02-22T11:32:01.946Z,0.50
2023-02-22T11:33:02.172Z,0.60
2023-02-22T11:34:04.364Z,0.50
2023-02-22T11:35:09.050Z,0.60
2023-02-22T11:36:05.851Z,0.50
2023-02-22T11:37:03.170Z,0.50
2023-02-22T11:38:03.399Z,0.40
2023-02-22T11:39:03.747Z,0.50
2023-02-22T11:40:05.924Z,0.50
2023-02-22T11:41:06.127Z,0.60
2023-02-22T11:42:04.529Z,0.40
2023-02-22T11:43:04.760Z,0.50
2023-02-22T11:44:04.991Z,0.40
2023-02-22T11:45:08.628Z,0.50
2023-02-22T11:46:05.617Z,0.50
2023-02-22T11:47:06.660Z,0.50
2023-02-22T11:48:07.008Z,0.50
2023-02-22T11:49:07.231Z,0.50
2023-02-22T11:50:08.479Z,0.50
2023-02-22T11:51:08.670Z,0.30
2023-02-22T11:52:07.097Z,0.40
2023-02-22T11:53:07.338Z,0.50
2023-02-22T11:54:07.568Z,0.40
2023-02-22T11:55:09.807Z,0.50
2023-02-22T11:56:08.074Z,0.40
2023-02-22T11:57:08.300Z,0.40
2023-02-22T11:58:08.862Z,0.50
2023-02-22T11:59:08.771Z,0.50
2023-02-22T12:00:10.946Z,0.50
2023-02-22T12:01:11.130Z,0.40
2023-02-22T12:02:09.549Z,0.40
2023-02-22T12:03:09.823Z,0.40
2023-02-22T12:04:10.124Z,0.50
2023-02-22T12:05:10.336Z,0.50
2023-02-22T12:06:12.478Z,0.50
2023-02-22T12:07:12.701Z,0.40
2023-02-22T12:08:19.254Z,0.30
2023-02-22T12:09:12.358Z,0.40
2023-02-22T12:10:11.636Z,0.40
2023-02-22T12:11:13.825Z,0.40
2023-02-22T12:12:12.127Z,0.40
2023-02-22T12:13:12.392Z,0.40
2023-02-22T12:14:12.609Z,0.40
2023-02-22T12:15:16.250Z,0.40
2023-02-22T12:16:15.211Z,0.30
2023-02-22T12:17:13.448Z,0.30
2023-02-22T12:18:13.790Z,0.50
2023-02-22T12:19:14.028Z,0.40
2023-02-22T12:20:14.252Z,0.40
2023-02-22T12:21:16.438Z,0.40
2023-02-22T12:22:14.855Z,0.30
2023-02-22T12:23:15.114Z,0.30
2023-02-22T12:24:15.320Z,0.30
2023-02-22T12:25:15.573Z,0.40
2023-02-22T12:26:16.109Z,0.30
2023-02-22T12:27:18.056Z,0.30
2023-02-22T12:28:24.305Z,0.30
2023-02-22T12:29:17.554Z,0.40
2023-02-22T12:30:16.865Z,0.30
2023-02-22T12:31:17.359Z,0.30
2023-02-22T12:32:19.339Z,0.40
2023-02-22T12:33:17.735Z,0.30
2023-02-22T12:34:18.488Z,0.30
2023-02-22T12:35:18.232Z,0.30
2023-02-22T12:36:21.378Z,0.30
2023-02-22T12:37:20.625Z,0.30
2023-02-22T12:38:19.937Z,0.40
2023-02-22T12:39:21.299Z,0.30
2023-02-22T12:40:20.543Z,0.30
2023-02-22T12:41:21.803Z,0.30
2023-02-22T12:42:21.958Z,0.30
2023-02-22T12:43:20.418Z,0.30
2023-02-22T12:44:20.633Z,0.30
2023-02-22T12:45:22.790Z,0.20
2023-02-22T12:46:23.035Z,0.20
2023-02-22T12:47:23.186Z,0.20
2023-02-22T12:48:23.371Z,0.30
2023-02-22T12:49:23.075Z,0.30
2023-02-22T12:50:24.225Z,0.40
2023-02-22T12:51:25.373Z,0.20
2023-02-22T12:52:24.626Z,0.20
2023-02-22T12:53:24.813Z,0.30
2023-02-22T12:54:25.018Z,0.30
2023-02-22T12:55:25.668Z,0.20
2023-02-22T12:56:25.914Z,0.30
2023-02-22T12:57:26.022Z,0.20
2023-02-22T12:58:26.705Z,0.30
2023-02-22T12:59:26.902Z,0.30
2023-02-22T13:00:25.327Z,0.20
2023-02-22T13:01:27.581Z,0.20
2023-02-22T13:02:27.720Z,0.20
2023-02-22T13:03:27.887Z,0.20
2023-02-22T13:04:26.428Z,0.20
2023-02-22T13:05:26.675Z,0.20
2023-02-22T13:06:26.907Z,0.20
2023-02-22T13:07:27.138Z,0.20
2023-02-22T13:08:29.325Z,0.20
2023-02-22T13:09:29.523Z,0.20
2023-02-22T13:10:27.955Z,0.20
2023-02-22T13:11:28.188Z,0.20
2023-02-22T13:12:30.375Z,0.20
2023-02-22T13:13:28.876Z,0.20
2023-02-22T13:14:29.104Z,0.20
2023-02-22T13:15:29.343Z,0.30
2023-02-22T13:16:31.566Z,0.20
2023-02-22T13:17:31.711Z,0.30
2023-02-22T13:18:32.091Z,0.20